メインページ
METAR-TAF:

METAR-TAF

空港 :

O・R・タンボ国際空港

ヨハネスブルグ, 南アフリカ共和国

緯度: 26-08S, 経度: 028-14E, 海抜: 1694m

現時点の気象観測

当レポートは44分前の22:00(UTC)に作成
南/南西の風 5kt
気温 15°C
湿度 63%
気圧 1029 hPa
視程10km以上
1,500メートル以下は雲なし、積乱雲なし

METAR: FAOR 182200Z 21005KT CAVOK 15/08 Q1029 NOSIG

時間: 00:44 (22:44 UTC)

予報

当レポートは6時間44分前の16:00(UTC)に作成
予報は18日の 18時(UTC)から 19日の 24時(UTC)まで有効
変向風 3kt
視程10km以上
1,500メートル以下は雲なし、積乱雲なし

TAF: FAOR 181600Z 1818/1924 VRB03KT CAVOK TX22/1913Z TN12/1904Z

4,000以上の空港の気象観測と天気予報(METAR報とTAF報)

利用可能な観測所は地図上に黄色い丸と赤い丸で示す。

丸の上にカーソルを重ねると観測所名を参照できる。

次にクリックすると気象観測と天気予報を参照できる。

マップの切り替え:黒色「×」印の緑ボタンをクリックして拡大、「-」印の緑ボタンをクリックして縮小、緑色の三角印をクリックして隣りの地図に切り替え


METAR-TAF: